createdAt,value
2019-04-11T00:00:35.289Z,102022.89
2019-04-11T00:03:05.115Z,102022.55
2019-04-11T00:05:34.930Z,102027.38
2019-04-11T00:08:05.951Z,102028.88
2019-04-11T00:10:35.844Z,102028.88
2019-04-11T00:13:17.321Z,102025.56
2019-04-11T00:15:37.084Z,101989.39
2019-04-11T00:18:06.222Z,102032.05
2019-04-11T00:20:36.101Z,102033.88
2019-04-11T00:23:06.033Z,102035.55
2019-04-11T00:25:35.781Z,102029.72
2019-04-11T00:28:05.795Z,102030.05
2019-04-11T00:30:34.584Z,102025.21
2019-04-11T00:33:03.408Z,102023.55
2019-04-11T00:35:33.490Z,102028.22
2019-04-11T00:38:02.582Z,102022.20
2019-04-11T00:40:31.311Z,102027.35
2019-04-11T00:43:01.069Z,102026.37
2019-04-11T00:45:29.971Z,102030.84
2019-04-11T00:47:59.627Z,102028.85
2019-04-11T00:50:30.132Z,102033.35
2019-04-11T00:52:59.589Z,102039.36
2019-04-11T00:55:29.342Z,102039.34
2019-04-11T00:57:58.522Z,102042.19
2019-04-11T01:00:27.342Z,102044.52
2019-04-11T01:02:56.082Z,102044.20
2019-04-11T01:05:25.613Z,102040.20
2019-04-11T01:07:55.434Z,102037.37
2019-04-11T01:10:25.091Z,102044.17
2019-04-11T01:12:53.864Z,102041.19
2019-04-11T01:15:24.182Z,102046.52
2019-04-11T01:17:53.868Z,102045.16
2019-04-11T01:20:23.828Z,102050.51
2019-04-11T01:22:52.628Z,102051.00
2019-04-11T01:25:22.183Z,102050.67
2019-04-11T01:27:51.526Z,102047.80
2019-04-11T01:30:23.313Z,102045.82
2019-04-11T01:32:52.724Z,102053.66
2019-04-11T01:35:22.135Z,102050.67
2019-04-11T01:37:50.971Z,102048.66
2019-04-11T01:40:19.739Z,102054.48
2019-04-11T01:42:49.239Z,102052.14
2019-04-11T01:45:19.686Z,102058.78
2019-04-11T01:47:59.441Z,102060.25
2019-04-11T01:50:29.835Z,102059.42
2019-04-11T01:52:58.612Z,102062.08
2019-04-11T01:55:28.248Z,102064.91
2019-04-11T01:57:58.315Z,102069.45
2019-04-11T02:03:08.758Z,102070.14
2019-04-11T02:05:38.708Z,102073.99
2019-04-11T02:08:07.462Z,102074.14
2019-04-11T02:10:37.064Z,102075.12
2019-04-11T02:13:06.318Z,102075.79
2019-04-11T02:15:35.089Z,102073.64
2019-04-11T02:18:03.877Z,102076.28
2019-04-11T02:20:33.357Z,102075.94
2019-04-11T02:23:04.634Z,102075.09
2019-04-11T02:25:38.690Z,102079.09
2019-04-11T02:28:08.592Z,102077.45
2019-04-11T02:30:41.030Z,102077.59
2019-04-11T02:33:11.701Z,102072.59
2019-04-11T02:35:42.354Z,102076.27
2019-04-11T02:38:12.423Z,102074.73
2019-04-11T02:40:43.022Z,102074.42
2019-04-11T02:43:13.305Z,102072.56
2019-04-11T02:45:52.631Z,102083.74
2019-04-11T02:48:13.776Z,102077.85
2019-04-11T02:50:45.723Z,102083.18
2019-04-11T02:53:14.870Z,102092.50
2019-04-11T02:55:46.759Z,102093.00
2019-04-11T02:58:16.715Z,102093.00
2019-04-11T03:00:45.783Z,102093.64
2019-04-11T03:03:15.251Z,102097.42
2019-04-11T03:05:46.896Z,102095.38
2019-04-11T03:08:19.247Z,102099.02
2019-04-11T03:10:46.674Z,102103.78
2019-04-11T03:13:16.843Z,102109.24
2019-04-11T03:16:00.501Z,102106.89
2019-04-11T03:18:39.171Z,102107.56
2019-04-11T03:20:53.155Z,102108.54
2019-04-11T03:23:20.904Z,102107.38
2019-04-11T03:25:49.073Z,102108.72
2019-04-11T03:28:23.125Z,102112.84
2019-04-11T03:31:13.796Z,102111.48
2019-04-11T03:36:54.043Z,102113.43
2019-04-11T03:38:46.908Z,102106.82
2019-04-11T03:41:17.353Z,102111.96
2019-04-11T03:43:39.800Z,102105.97
2019-04-11T03:46:14.296Z,102113.56
2019-04-11T03:48:40.850Z,102112.63
2019-04-11T03:51:00.070Z,102117.59
2019-04-11T03:53:31.951Z,102114.58
2019-04-11T03:56:01.679Z,102120.88
2019-04-11T03:58:31.717Z,102123.84
2019-04-11T04:01:05.562Z,102120.88
2019-04-11T04:03:34.178Z,102123.88
2019-04-11T04:06:04.593Z,102129.34
2019-04-11T04:08:36.182Z,102134.22
2019-04-11T04:11:08.619Z,102132.44
2019-04-11T04:13:39.924Z,102130.76
2019-04-11T04:16:26.075Z,102132.93
2019-04-11T04:19:12.769Z,102134.70
2019-04-11T04:21:50.960Z,102135.16
2019-04-11T04:24:31.929Z,102131.11
2019-04-11T04:27:01.675Z,102132.22
2019-04-11T04:29:32.434Z,102133.55
2019-04-11T04:32:02.868Z,102129.83
2019-04-11T04:34:33.608Z,102132.47
2019-04-11T04:37:03.573Z,102135.73
2019-04-11T04:39:34.591Z,102136.72
2019-04-11T04:42:11.074Z,102138.34
2019-04-11T04:44:35.690Z,102142.52
2019-04-11T04:47:15.302Z,102144.20
2019-04-11T04:49:36.520Z,102010.66
2019-04-11T04:52:07.833Z,102147.72
2019-04-11T04:54:36.593Z,102152.66
2019-04-11T04:57:08.568Z,102159.66
2019-04-11T04:59:37.518Z,102160.70
2019-04-11T05:02:08.206Z,102164.69
2019-04-11T05:04:38.312Z,102172.36
2019-04-11T05:07:07.441Z,102173.25
2019-04-11T05:09:36.266Z,102179.21
2019-04-11T05:12:05.455Z,102184.14
2019-04-11T05:14:35.087Z,102181.73
2019-04-11T05:17:06.608Z,102178.69
2019-04-11T05:19:35.643Z,102139.58
2019-04-11T05:22:06.471Z,102178.22
2019-04-11T05:24:36.839Z,102064.85
2019-04-11T05:27:06.365Z,102179.74
2019-04-11T05:29:35.622Z,102188.89
2019-04-11T05:32:05.280Z,102186.83
2019-04-11T05:34:35.117Z,102062.19
2019-04-11T05:37:05.213Z,102186.28
2019-04-11T05:39:33.963Z,102121.59
2019-04-11T05:42:03.158Z,102186.16
2019-04-11T05:44:35.298Z,102187.94
2019-04-11T05:47:05.587Z,102189.16
2019-04-11T05:49:47.388Z,102185.13
2019-04-11T05:52:16.218Z,102186.70
2019-04-11T05:54:51.064Z,102185.23
2019-04-11T05:57:23.787Z,102191.85
2019-04-11T05:59:53.415Z,102186.26
2019-04-11T06:02:35.320Z,102193.02
2019-04-11T06:05:24.508Z,102191.91
2019-04-11T06:08:02.337Z,102193.08
2019-04-11T06:10:33.795Z,102199.94
2019-04-11T06:13:07.952Z,102196.09
2019-04-11T06:15:40.835Z,102200.59
2019-04-11T06:18:17.904Z,102203.34
2019-04-11T06:20:45.806Z,102203.02
2019-04-11T06:23:32.559Z,102210.50
2019-04-11T06:26:19.211Z,102206.37
2019-04-11T06:28:49.617Z,102213.70
2019-04-11T06:31:24.551Z,102224.48
2019-04-11T06:33:55.014Z,102221.13
2019-04-11T06:36:26.762Z,102217.56
2019-04-11T06:39:03.162Z,102215.87
2019-04-11T06:41:34.715Z,102216.58
2019-04-11T06:44:21.932Z,102218.88
2019-04-11T06:47:10.448Z,102213.00
2019-04-11T06:49:40.833Z,102221.78
2019-04-11T06:52:12.422Z,102220.89
2019-04-11T06:54:43.649Z,102218.81
2019-04-11T06:57:25.813Z,102219.55
2019-04-11T06:59:54.549Z,102224.59
2019-04-11T07:02:25.157Z,102226.71
2019-04-11T07:05:04.632Z,102226.59
2019-04-11T07:07:35.666Z,102230.01
2019-04-11T07:10:06.329Z,102232.52
2019-04-11T07:12:49.369Z,102234.36
2019-04-11T07:15:23.544Z,102231.21
2019-04-11T07:18:10.126Z,102229.85
2019-04-11T07:20:52.573Z,102234.77
2019-04-11T07:23:38.928Z,102233.84
2019-04-11T07:26:12.253Z,102234.80
2019-04-11T07:28:43.871Z,102236.94
2019-04-11T07:31:21.592Z,102232.78
2019-04-11T07:34:06.149Z,102232.83
2019-04-11T07:39:47.352Z,102243.17
2019-04-11T07:42:26.654Z,102244.49
2019-04-11T07:45:20.903Z,102247.10
2019-04-11T07:48:08.747Z,102252.72
2019-04-11T07:50:37.702Z,102252.91
2019-04-11T07:53:08.672Z,102255.55
2019-04-11T07:55:39.256Z,102248.06
2019-04-11T07:58:13.147Z,102252.28
2019-04-11T08:00:47.452Z,102254.53
2019-04-11T08:03:32.137Z,102258.81
2019-04-11T08:06:18.569Z,102256.02
2019-04-11T08:09:05.256Z,102254.91
2019-04-11T08:11:35.905Z,102256.16
2019-04-11T08:14:18.202Z,102251.61
2019-04-11T08:17:04.970Z,102258.44
2019-04-11T08:19:51.696Z,102261.60
2019-04-11T08:22:30.831Z,102252.86
2019-04-11T08:25:17.420Z,102255.05
2019-04-11T08:28:01.339Z,102250.30
2019-04-11T08:30:46.801Z,102259.73
2019-04-11T08:33:18.253Z,102257.30
2019-04-11T08:36:03.625Z,102257.48
2019-04-11T08:38:34.284Z,102256.35
2019-04-11T08:41:05.191Z,102264.53
2019-04-11T08:43:35.249Z,102259.56
2019-04-11T08:46:06.947Z,102257.08
2019-04-11T08:48:37.320Z,102246.25
2019-04-11T08:51:08.677Z,102255.27
2019-04-11T08:53:45.770Z,102258.54
2019-04-11T08:56:20.856Z,102261.50
2019-04-11T08:59:33.585Z,102261.84
2019-04-11T09:02:03.087Z,102255.41
2019-04-11T09:04:50.300Z,102258.36
2019-04-11T09:07:36.053Z,102256.84
2019-04-11T09:10:24.042Z,102257.34
2019-04-11T09:13:13.341Z,102257.34
2019-04-11T09:15:59.880Z,102253.20
2019-04-11T09:18:30.307Z,102256.69
2019-04-11T09:21:06.349Z,102255.47
2019-04-11T09:23:37.645Z,102253.72
2019-04-11T09:26:25.568Z,102253.15
2019-04-11T09:28:55.042Z,102252.31
2019-04-11T09:31:31.794Z,102257.01
2019-04-11T09:34:11.786Z,102256.13
2019-04-11T09:36:45.210Z,102250.55
2019-04-11T09:39:21.403Z,102247.95
2019-04-11T09:41:57.597Z,102252.33
2019-04-11T09:44:30.954Z,102251.36
2019-04-11T09:47:11.206Z,102248.42
2019-04-11T09:49:42.952Z,102247.28
2019-04-11T09:52:14.286Z,102245.20
2019-04-11T09:54:51.164Z,102238.06
2019-04-11T09:57:28.853Z,102240.91
2019-04-11T09:59:59.585Z,102245.98
2019-04-11T10:02:48.398Z,102254.02
2019-04-11T10:05:24.716Z,102256.73
2019-04-11T10:08:02.094Z,102258.91
2019-04-11T10:10:33.091Z,102257.80
2019-04-11T10:13:20.541Z,102254.85
2019-04-11T10:16:07.650Z,102253.20
2019-04-11T10:18:47.367Z,102249.52
2019-04-11T10:21:19.366Z,102241.51
2019-04-11T10:23:57.450Z,102241.70
2019-04-11T10:26:28.089Z,102246.17
2019-04-11T10:29:15.084Z,102249.58
2019-04-11T10:31:46.413Z,102249.88
2019-04-11T10:34:23.706Z,102247.66
2019-04-11T10:36:55.815Z,102249.55
2019-04-11T10:39:35.590Z,102249.55
2019-04-11T10:42:08.615Z,102244.70
2019-04-11T10:44:42.306Z,102245.97
2019-04-11T10:47:16.455Z,102239.80
2019-04-11T10:50:03.277Z,102243.48
2019-04-11T10:52:43.221Z,102237.37
2019-04-11T10:55:17.726Z,102237.42
2019-04-11T10:57:52.030Z,102243.37
2019-04-11T11:00:25.872Z,102240.33
2019-04-11T11:02:59.837Z,102238.05
2019-04-11T11:05:38.385Z,102245.94
2019-04-11T11:08:19.407Z,102243.13
2019-04-11T11:10:50.086Z,102232.70
2019-04-11T11:13:39.643Z,102238.75
2019-04-11T11:16:13.947Z,102239.39
2019-04-11T11:19:24.617Z,102243.41
2019-04-11T11:21:35.193Z,102233.30
2019-04-11T11:24:28.777Z,102243.43
2019-04-11T11:27:01.488Z,102247.84
2019-04-11T11:29:40.360Z,102239.95
2019-04-11T11:32:16.839Z,102240.22
2019-04-11T11:34:53.292Z,102237.51
2019-04-11T11:37:33.255Z,102233.30
2019-04-11T11:40:23.691Z,102243.98
2019-04-11T11:42:58.773Z,102247.07
2019-04-11T11:45:37.593Z,102241.13
2019-04-11T11:48:20.767Z,102244.11
2019-04-11T11:51:01.207Z,102245.33
2019-04-11T11:53:46.922Z,102250.68
2019-04-11T11:56:29.710Z,102245.30
2019-04-11T11:59:02.757Z,102248.41
2019-04-11T12:01:42.254Z,102247.75
2019-04-11T12:04:14.796Z,102248.44
2019-04-11T12:06:47.806Z,102245.68
2019-04-11T12:09:36.277Z,102250.75
2019-04-11T12:12:22.136Z,102247.58
2019-04-11T12:14:59.371Z,102246.07
2019-04-11T12:17:36.169Z,102238.49
2019-04-11T12:20:11.678Z,102238.49
2019-04-11T12:22:40.198Z,102236.55
2019-04-11T12:25:29.205Z,102245.60
2019-04-11T12:28:00.493Z,102246.61
2019-04-11T12:30:32.733Z,102240.77
2019-04-11T12:33:05.531Z,102244.62
2019-04-11T12:35:36.054Z,102244.81
2019-04-11T12:38:24.445Z,102245.06
2019-04-11T12:41:10.549Z,102258.41
2019-04-11T12:43:46.757Z,102246.36
2019-04-11T12:46:33.671Z,102241.56
2019-04-11T12:49:09.906Z,102244.06
2019-04-11T12:51:56.252Z,102236.11
2019-04-11T12:54:26.665Z,102233.05
2019-04-11T12:57:13.251Z,102234.10
2019-04-11T12:59:42.157Z,102230.02
2019-04-11T13:02:24.415Z,102238.38
2019-04-11T13:04:59.568Z,102235.92
2019-04-11T13:07:30.226Z,102236.88
2019-04-11T13:10:00.549Z,102233.37
2019-04-11T13:12:47.209Z,102225.89
2019-04-11T13:15:20.260Z,102223.55
2019-04-11T13:17:56.481Z,102219.55
2019-04-11T13:20:29.860Z,102218.45
2019-04-11T13:23:16.352Z,102221.98
2019-04-11T13:26:06.176Z,102217.53
2019-04-11T13:28:35.063Z,102223.58
2019-04-11T13:31:21.616Z,102217.19
2019-04-11T13:33:52.405Z,102218.45
2019-04-11T13:36:32.261Z,102214.70
2019-04-11T13:39:03.103Z,102218.30
2019-04-11T13:41:42.654Z,102213.82
2019-04-11T13:44:13.003Z,102206.42
2019-04-11T13:46:44.116Z,102205.92
2019-04-11T13:49:14.581Z,102205.63
2019-04-11T13:51:59.726Z,102197.44
2019-04-11T13:54:32.884Z,102190.88
2019-04-11T13:57:19.449Z,102190.44
2019-04-11T14:00:05.943Z,102181.83
2019-04-11T14:02:50.421Z,102192.18
2019-04-11T14:05:11.345Z,102188.61
2019-04-11T14:07:41.690Z,102184.77
2019-04-11T14:10:18.157Z,102180.88
2019-04-11T14:12:48.039Z,102180.38
2019-04-11T14:15:21.095Z,102178.09
2019-04-11T14:17:51.430Z,102178.55
2019-04-11T14:20:29.604Z,102180.63
2019-04-11T14:23:05.857Z,102179.27
2019-04-11T14:25:51.233Z,102179.16
2019-04-11T14:28:27.496Z,102169.37
2019-04-11T14:31:00.559Z,102165.81
2019-04-11T14:33:30.874Z,102158.56
2019-04-11T14:36:10.238Z,102156.31
2019-04-11T14:38:45.848Z,102169.59
2019-04-11T14:41:18.481Z,102172.98
2019-04-11T14:43:48.781Z,102164.33
2019-04-11T14:46:19.929Z,102167.37
2019-04-11T14:48:50.254Z,102161.58
2019-04-11T14:51:23.877Z,102171.05
2019-04-11T14:54:11.700Z,102154.03
2019-04-11T14:56:57.837Z,102152.30
2019-04-11T14:59:43.363Z,102151.19
2019-04-11T15:02:22.640Z,102149.84
2019-04-11T15:05:01.910Z,102154.94
2019-04-11T15:07:32.274Z,102149.66
2019-04-11T15:10:17.874Z,102142.97
2019-04-11T15:12:48.090Z,102150.64
2019-04-11T15:15:28.601Z,102153.94
2019-04-11T15:20:59.291Z,102154.31
2019-04-11T15:23:32.814Z,102166.17
2019-04-11T15:26:03.256Z,102157.15
2019-04-11T15:28:36.889Z,102155.92
2019-04-11T15:31:18.482Z,102159.20
2019-04-11T15:34:08.571Z,102159.77
2019-04-11T15:36:39.895Z,102159.97
2019-04-11T15:39:44.052Z,102155.76
2019-04-11T15:42:09.237Z,102156.32
2019-04-11T15:44:53.552Z,102149.73
2019-04-11T15:47:23.959Z,102154.64
2019-04-11T15:50:12.369Z,102140.34
2019-04-11T15:52:44.218Z,102140.53
2019-04-11T15:55:31.197Z,102144.22
2019-04-11T15:58:01.921Z,102144.96
2019-04-11T16:00:50.515Z,102145.00
2019-04-11T16:03:19.343Z,102149.52
2019-04-11T16:06:05.156Z,102155.73
2019-04-11T16:08:38.888Z,102155.32
2019-04-11T16:11:16.644Z,102158.23
2019-04-11T16:13:56.037Z,102158.86
2019-04-11T16:16:29.282Z,102161.47
2019-04-11T16:19:02.695Z,102162.08
2019-04-11T16:21:49.112Z,102159.05
2019-04-11T16:24:22.277Z,102157.28
2019-04-11T16:27:00.530Z,102152.78
2019-04-11T16:29:30.867Z,102160.83
2019-04-11T16:32:06.920Z,102156.34
2019-04-11T16:34:47.924Z,102162.27
2019-04-11T16:37:08.115Z,102160.97
2019-04-11T16:39:55.126Z,102161.32
2019-04-11T16:42:26.223Z,102162.91
2019-04-11T16:45:02.357Z,102163.26
2019-04-11T16:47:47.561Z,102169.22
2019-04-11T16:50:16.483Z,102174.81
2019-04-11T16:52:45.208Z,102170.59
2019-04-11T16:55:13.971Z,102169.76
2019-04-11T16:57:44.326Z,102167.92
2019-04-11T17:00:13.358Z,102172.34
2019-04-11T17:02:42.170Z,102172.34
2019-04-11T17:05:11.169Z,102176.55
2019-04-11T17:07:44.250Z,102183.59
2019-04-11T17:10:14.734Z,102177.70
2019-04-11T17:12:43.458Z,102183.52
2019-04-11T17:15:12.239Z,102178.35
2019-04-11T17:17:40.994Z,102179.70
2019-04-11T17:20:09.825Z,102183.97
2019-04-11T17:22:38.563Z,102181.69
2019-04-11T17:25:07.340Z,102182.02
2019-04-11T17:27:36.070Z,102186.80
2019-04-11T17:30:06.705Z,102183.48
2019-04-11T17:32:36.232Z,102194.91
2019-04-11T17:35:06.659Z,102187.98
2019-04-11T17:37:35.445Z,102171.31
2019-04-11T17:40:07.050Z,102200.75
2019-04-11T17:42:36.980Z,102202.23
2019-04-11T17:45:07.760Z,102209.48
2019-04-11T17:47:36.518Z,102203.58
2019-04-11T17:50:06.756Z,102208.55
2019-04-11T17:52:35.580Z,102216.34
2019-04-11T17:55:05.821Z,102215.09
2019-04-11T17:57:34.586Z,102166.55
2019-04-11T18:00:04.882Z,102224.70
2019-04-11T18:02:33.622Z,102226.89
2019-04-11T18:05:02.379Z,102229.80
2019-04-11T18:07:31.168Z,102239.42
2019-04-11T18:10:00.043Z,102237.13
2019-04-11T18:12:28.807Z,102232.38
2019-04-11T18:14:59.848Z,102238.50
2019-04-11T18:17:28.050Z,102239.28
2019-04-11T18:19:56.858Z,102244.14
2019-04-11T18:22:25.802Z,102243.34
2019-04-11T18:24:55.381Z,102245.14
2019-04-11T18:27:24.226Z,102250.63
2019-04-11T18:29:53.613Z,102249.18
2019-04-11T18:32:22.462Z,102252.49
2019-04-11T18:34:51.198Z,102256.64
2019-04-11T18:37:19.967Z,102252.69
2019-04-11T18:39:48.809Z,102260.66
2019-04-11T18:42:17.588Z,102261.33
2019-04-11T18:44:46.421Z,102270.38
2019-04-11T18:47:15.262Z,102278.65
2019-04-11T18:49:44.230Z,102279.16
2019-04-11T18:52:19.573Z,102283.42
2019-04-11T18:54:43.820Z,102288.26
2019-04-11T18:57:14.086Z,102289.47
2019-04-11T18:59:43.864Z,102301.65
2019-04-11T19:02:12.844Z,102288.63
2019-04-11T19:04:42.212Z,102289.02
2019-04-11T19:07:13.866Z,102291.46
2019-04-11T19:09:43.883Z,102290.84
2019-04-11T19:12:15.878Z,102294.72
2019-04-11T19:14:46.003Z,102305.42
2019-04-11T19:17:30.611Z,102304.70
2019-04-11T19:20:00.215Z,102306.88
2019-04-11T19:22:37.601Z,102310.11
2019-04-11T19:24:59.593Z,102309.09
2019-04-11T19:27:28.878Z,102311.29
2019-04-11T19:29:57.739Z,102309.16
2019-04-11T19:32:26.493Z,102306.70
2019-04-11T19:34:55.909Z,102313.12
2019-04-11T19:37:31.159Z,102306.62
2019-04-11T19:40:00.070Z,102309.77
2019-04-11T19:42:29.840Z,102302.42
2019-04-11T19:44:58.990Z,102305.29
2019-04-11T19:47:29.303Z,102308.19
2019-04-11T19:50:03.343Z,102305.05
2019-04-11T19:52:45.152Z,102313.69
2019-04-11T19:55:19.359Z,102311.06
2019-04-11T19:57:48.375Z,102319.84
2019-04-11T20:00:21.374Z,102319.84
2019-04-11T20:02:47.681Z,102317.55
2019-04-11T20:05:16.447Z,102315.03
2019-04-11T20:07:47.124Z,102318.11
2019-04-11T20:10:16.125Z,102314.59
2019-04-11T20:12:45.625Z,102316.59
2019-04-11T20:15:16.143Z,102322.59
2019-04-11T20:17:51.076Z,102328.03
2019-04-11T20:20:16.040Z,102319.06
2019-04-11T20:23:05.107Z,102320.11
2019-04-11T20:25:46.269Z,102327.02
2019-04-11T20:28:16.460Z,102324.39
2019-04-11T20:30:49.432Z,102325.66
2019-04-11T20:33:26.879Z,102326.98
2019-04-11T20:35:59.354Z,102327.61
2019-04-11T20:38:28.657Z,102328.95
2019-04-11T20:40:57.389Z,102325.93
2019-04-11T20:43:27.800Z,102322.79
2019-04-11T20:45:58.669Z,102330.42
2019-04-11T20:48:27.702Z,102334.00
2019-04-11T20:50:57.136Z,102331.52
2019-04-11T20:53:25.976Z,102340.80
2019-04-11T20:55:54.719Z,102335.27
2019-04-11T20:58:27.517Z,102337.84
2019-04-11T21:00:56.039Z,102339.95
2019-04-11T21:03:24.996Z,102335.08
2019-04-11T21:05:55.447Z,102335.63
2019-04-11T21:08:25.724Z,102340.84
2019-04-11T21:10:56.587Z,102340.27
2019-04-11T21:13:26.795Z,102344.75
2019-04-11T21:15:55.911Z,102343.25
2019-04-11T21:18:25.835Z,102342.83
2019-04-11T21:20:58.196Z,102342.24
2019-04-11T21:23:29.467Z,102343.08
2019-04-11T21:25:59.066Z,102332.17
2019-04-11T21:28:30.317Z,102344.67
2019-04-11T21:31:00.120Z,102342.29
2019-04-11T21:33:29.528Z,102342.75
2019-04-11T21:35:58.330Z,102343.00
2019-04-11T21:38:28.140Z,102340.56
2019-04-11T21:40:57.785Z,102346.06
2019-04-11T21:43:26.523Z,102352.33
2019-04-11T21:45:58.689Z,102349.84
2019-04-11T21:48:27.619Z,102352.70
2019-04-11T21:50:56.457Z,102344.94
2019-04-11T21:53:36.059Z,102347.45
2019-04-11T21:55:56.114Z,102349.34
2019-04-11T21:58:27.412Z,102349.47
2019-04-11T22:01:02.151Z,102357.03
2019-04-11T22:03:31.918Z,102357.03
2019-04-11T22:06:00.689Z,102348.89
2019-04-11T22:08:29.459Z,102353.58
2019-04-11T22:10:58.213Z,102348.50
2019-04-11T22:13:26.947Z,102354.33
2019-04-11T22:15:55.730Z,102355.55
2019-04-11T22:18:24.476Z,102350.34
2019-04-11T22:20:53.231Z,102353.67
2019-04-11T22:23:21.964Z,102356.89
2019-04-11T22:25:50.801Z,102359.95
2019-04-11T22:28:21.973Z,102354.58
2019-04-11T22:30:50.102Z,102356.73
2019-04-11T22:33:29.206Z,102358.44
2019-04-11T22:35:59.320Z,102359.15
2019-04-11T22:38:30.535Z,102361.06
2019-04-11T22:41:01.503Z,102359.05
2019-04-11T22:43:29.443Z,102359.19
2019-04-11T22:45:58.173Z,102363.96
2019-04-11T22:48:26.909Z,102359.30
2019-04-11T22:50:55.708Z,102371.55
2019-04-11T22:53:24.473Z,102363.33
2019-04-11T22:55:53.225Z,102363.19
2019-04-11T22:58:21.980Z,102369.06
2019-04-11T23:00:51.760Z,102362.69
2019-04-11T23:03:22.944Z,102371.11
2019-04-11T23:05:53.969Z,102374.81
2019-04-11T23:08:22.744Z,102374.84
2019-04-11T23:10:51.570Z,102377.49
2019-04-11T23:13:20.341Z,102376.19
2019-04-11T23:15:49.137Z,102369.81
2019-04-11T23:18:17.989Z,102379.53
2019-04-11T23:20:46.715Z,102381.05
2019-04-11T23:23:15.460Z,102382.26
2019-04-11T23:25:44.244Z,102379.95
2019-04-11T23:28:15.614Z,102385.95
2019-04-11T23:30:43.435Z,102380.81
2019-04-11T23:33:12.256Z,102376.79
2019-04-11T23:35:41.016Z,102381.02
2019-04-11T23:38:09.929Z,102378.13
2019-04-11T23:40:38.692Z,102382.66
2019-04-11T23:43:07.501Z,102386.38
2019-04-11T23:45:36.262Z,102374.11
2019-04-11T23:48:05.239Z,102383.60
2019-04-11T23:50:34.043Z,102382.86
2019-04-11T23:53:02.777Z,102390.41
2019-04-11T23:55:31.520Z,102385.05
2019-04-11T23:58:01.725Z,102388.06
